sensor_id;sensor_type;location;lat;lon;timestamp;P1;durP1;ratioP1;P2;durP2;ratioP2
44862;SDS011;30597;49.628;10.850;2024-03-23T00:55:00;7.33;;;6.63;;
44862;SDS011;30597;49.628;10.850;2024-03-23T00:57:26;8.20;;;7.20;;
44862;SDS011;30597;49.628;10.850;2024-03-23T00:59:51;7.57;;;6.87;;
44862;SDS011;30597;49.628;10.850;2024-03-23T01:02:17;8.70;;;6.53;;
44862;SDS011;30597;49.628;10.850;2024-03-23T01:05:09;7.70;;;6.13;;
44862;SDS011;30597;49.628;10.850;2024-03-23T01:07:34;7.67;;;6.43;;
44862;SDS011;30597;49.628;10.850;2024-03-23T01:10:00;7.17;;;6.27;;
44862;SDS011;30597;49.628;10.850;2024-03-23T01:12:25;6.17;;;5.57;;
44862;SDS011;30597;49.628;10.850;2024-03-23T01:14:51;6.30;;;5.80;;
44862;SDS011;30597;49.628;10.850;2024-03-23T01:17:16;6.50;;;5.63;;
44862;SDS011;30597;49.628;10.850;2024-03-23T01:19:42;6.20;;;5.60;;
44862;SDS011;30597;49.628;10.850;2024-03-23T01:22:07;7.13;;;6.40;;
44862;SDS011;30597;49.628;10.850;2024-03-23T01:24:36;6.20;;;5.60;;
44862;SDS011;30597;49.628;10.850;2024-03-23T01:27:02;5.83;;;5.33;;
44862;SDS011;30597;49.628;10.850;2024-03-23T01:29:28;6.37;;;5.83;;
44862;SDS011;30597;49.628;10.850;2024-03-23T01:31:53;6.10;;;5.53;;
44862;SDS011;30597;49.628;10.850;2024-03-23T01:34:19;6.47;;;5.47;;
44862;SDS011;30597;49.628;10.850;2024-03-23T01:36:45;6.30;;;5.70;;
44862;SDS011;30597;49.628;10.850;2024-03-23T01:39:11;6.63;;;6.03;;
44862;SDS011;30597;49.628;10.850;2024-03-23T01:41:37;6.13;;;5.57;;
44862;SDS011;30597;49.628;10.850;2024-03-23T01:44:07;7.53;;;6.73;;
44862;SDS011;30597;49.628;10.850;2024-03-23T01:46:33;8.00;;;6.40;;
44862;SDS011;30597;49.628;10.850;2024-03-23T01:49:00;6.60;;;6.00;;
44862;SDS011;30597;49.628;10.850;2024-03-23T01:51:26;6.30;;;5.70;;
44862;SDS011;30597;49.628;10.850;2024-03-23T01:53:53;7.50;;;6.43;;
44862;SDS011;30597;49.628;10.850;2024-03-23T01:56:20;6.57;;;5.80;;
44862;SDS011;30597;49.628;10.850;2024-03-23T01:58:45;6.50;;;6.00;;
44862;SDS011;30597;49.628;10.850;2024-03-23T02:01:11;7.47;;;6.57;;
44862;SDS011;30597;49.628;10.850;2024-03-23T02:03:37;6.97;;;6.37;;
44862;SDS011;30597;49.628;10.850;2024-03-23T02:06:02;7.87;;;7.17;;
44862;SDS011;30597;49.628;10.850;2024-03-23T02:08:28;7.50;;;6.53;;
44862;SDS011;30597;49.628;10.850;2024-03-23T02:10:54;8.00;;;6.90;;
44862;SDS011;30597;49.628;10.850;2024-03-23T02:13:20;7.73;;;7.03;;
44862;SDS011;30597;49.628;10.850;2024-03-23T02:15:46;7.40;;;6.50;;
44862;SDS011;30597;49.628;10.850;2024-03-23T02:18:12;7.43;;;6.70;;
44862;SDS011;30597;49.628;10.850;2024-03-23T02:20:38;7.70;;;6.90;;
44862;SDS011;30597;49.628;10.850;2024-03-23T02:23:04;7.90;;;7.10;;
44862;SDS011;30597;49.628;10.850;2024-03-23T02:25:33;8.70;;;7.90;;
44862;SDS011;30597;49.628;10.850;2024-03-23T02:27:59;8.50;;;7.70;;
44862;SDS011;30597;49.628;10.850;2024-03-23T02:30:25;8.47;;;7.67;;
44862;SDS011;30597;49.628;10.850;2024-03-23T02:32:51;9.57;;;8.30;;
44862;SDS011;30597;49.628;10.850;2024-03-23T02:35:17;9.30;;;8.33;;
44862;SDS011;30597;49.628;10.850;2024-03-23T02:37:42;8.37;;;7.67;;
44862;SDS011;30597;49.628;10.850;2024-03-23T02:40:08;8.90;;;8.00;;
44862;SDS011;30597;49.628;10.850;2024-03-23T02:42:34;9.43;;;8.53;;
44862;SDS011;30597;49.628;10.850;2024-03-23T02:44:59;9.57;;;8.67;;
44862;SDS011;30597;49.628;10.850;2024-03-23T02:47:25;8.30;;;7.50;;
44862;SDS011;30597;49.628;10.850;2024-03-23T02:49:50;9.93;;;8.73;;
44862;SDS011;30597;49.628;10.850;2024-03-23T02:52:16;8.73;;;7.93;;
44862;SDS011;30597;49.628;10.850;2024-03-23T02:54:41;10.00;;;9.03;;
44862;SDS011;30597;49.628;10.850;2024-03-23T02:57:10;9.43;;;8.53;;
44862;SDS011;30597;49.628;10.850;2024-03-23T02:59:36;9.77;;;8.77;;
44862;SDS011;30597;49.628;10.850;2024-03-23T03:02:01;9.40;;;8.50;;
44862;SDS011;30597;49.628;10.850;2024-03-23T03:04:29;10.30;;;9.20;;
44862;SDS011;30597;49.628;10.850;2024-03-23T03:06:55;9.70;;;8.87;;
44862;SDS011;30597;49.628;10.850;2024-03-23T03:09:20;10.07;;;9.17;;
44862;SDS011;30597;49.628;10.850;2024-03-23T03:11:46;10.37;;;9.37;;
44862;SDS011;30597;49.628;10.850;2024-03-23T03:14:12;10.20;;;9.30;;
44862;SDS011;30597;49.628;10.850;2024-03-23T03:16:37;10.90;;;9.80;;
44862;SDS011;30597;49.628;10.850;2024-03-23T03:19:03;10.50;;;9.50;;
44862;SDS011;30597;49.628;10.850;2024-03-23T03:21:28;11.80;;;9.13;;
44862;SDS011;30597;49.628;10.850;2024-03-23T03:23:54;10.07;;;9.07;;
44862;SDS011;30597;49.628;10.850;2024-03-23T03:26:21;11.07;;;9.97;;
44862;SDS011;30597;49.628;10.850;2024-03-23T03:28:47;9.30;;;8.40;;
44862;SDS011;30597;49.628;10.850;2024-03-23T03:31:17;10.30;;;9.30;;
44862;SDS011;30597;49.628;10.850;2024-03-23T03:33:43;11.90;;;10.70;;
44862;SDS011;30597;49.628;10.850;2024-03-23T03:36:09;10.73;;;9.70;;
44862;SDS011;30597;49.628;10.850;2024-03-23T03:38:35;11.10;;;10.10;;
44862;SDS011;30597;49.628;10.850;2024-03-23T03:41:01;10.70;;;9.60;;
44862;SDS011;30597;49.628;10.850;2024-03-23T03:43:27;10.50;;;9.60;;
44862;SDS011;30597;49.628;10.850;2024-03-23T03:45:56;11.93;;;10.83;;
44862;SDS011;30597;49.628;10.850;2024-03-23T03:48:23;12.10;;;10.90;;
44862;SDS011;30597;49.628;10.850;2024-03-23T03:50:49;10.80;;;9.80;;
44862;SDS011;30597;49.628;10.850;2024-03-23T03:53:14;12.43;;;11.20;;
44862;SDS011;30597;49.628;10.850;2024-03-23T03:55:40;12.73;;;11.60;;
44862;SDS011;30597;49.628;10.850;2024-03-23T03:58:05;11.53;;;10.43;;
44862;SDS011;30597;49.628;10.850;2024-03-23T04:00:31;11.50;;;10.40;;
44862;SDS011;30597;49.628;10.850;2024-03-23T04:02:56;10.27;;;9.27;;
44862;SDS011;30597;49.628;10.850;2024-03-23T04:05:22;11.57;;;10.37;;
44862;SDS011;30597;49.628;10.850;2024-03-23T04:07:48;12.27;;;9.57;;
44862;SDS011;30597;49.628;10.850;2024-03-23T04:10:13;12.17;;;10.73;;
44862;SDS011;30597;49.628;10.850;2024-03-23T04:12:40;10.93;;;9.83;;
44862;SDS011;30597;49.628;10.850;2024-03-23T04:15:06;11.13;;;10.07;;
44862;SDS011;30597;49.628;10.850;2024-03-23T04:17:32;10.97;;;9.97;;
44862;SDS011;30597;49.628;10.850;2024-03-23T04:19:59;10.60;;;9.67;;
44862;SDS011;30597;49.628;10.850;2024-03-23T04:22:26;11.23;;;10.13;;
44862;SDS011;30597;49.628;10.850;2024-03-23T04:24:55;10.50;;;9.50;;
44862;SDS011;30597;49.628;10.850;2024-03-23T04:27:21;11.40;;;10.40;;
44862;SDS011;30597;49.628;10.850;2024-03-23T04:29:50;10.60;;;9.60;;
44862;SDS011;30597;49.628;10.850;2024-03-23T04:32:15;10.20;;;9.23;;
44862;SDS011;30597;49.628;10.850;2024-03-23T04:34:42;10.60;;;9.60;;
44862;SDS011;30597;49.628;10.850;2024-03-23T04:37:08;9.63;;;8.73;;
44862;SDS011;30597;49.628;10.850;2024-03-23T04:39:35;10.50;;;9.47;;
44862;SDS011;30597;49.628;10.850;2024-03-23T04:42:01;10.43;;;9.53;;
44862;SDS011;30597;49.628;10.850;2024-03-23T04:44:27;10.37;;;9.37;;
44862;SDS011;30597;49.628;10.850;2024-03-23T04:46:53;10.97;;;9.93;;
44862;SDS011;30597;49.628;10.850;2024-03-23T04:49:19;10.07;;;9.00;;
44862;SDS011;30597;49.628;10.850;2024-03-23T04:51:44;11.23;;;10.30;;
44862;SDS011;30597;49.628;10.850;2024-03-23T04:54:14;11.27;;;10.20;;
44862;SDS011;30597;49.628;10.850;2024-03-23T04:56:40;11.23;;;9.70;;
44862;SDS011;30597;49.628;10.850;2024-03-23T04:59:06;10.70;;;9.70;;
44862;SDS011;30597;49.628;10.850;2024-03-23T05:01:31;9.90;;;9.00;;
44862;SDS011;30597;49.628;10.850;2024-03-23T05:03:57;9.87;;;8.87;;
44862;SDS011;30597;49.628;10.850;2024-03-23T05:06:23;10.40;;;9.40;;
44862;SDS011;30597;49.628;10.850;2024-03-23T05:08:50;9.73;;;8.70;;
44862;SDS011;30597;49.628;10.850;2024-03-23T05:11:16;10.10;;;9.20;;
44862;SDS011;30597;49.628;10.850;2024-03-23T05:13:41;9.30;;;8.43;;
44862;SDS011;30597;49.628;10.850;2024-03-23T05:16:07;9.87;;;8.80;;
44862;SDS011;30597;49.628;10.850;2024-03-23T05:18:33;8.30;;;7.60;;
44862;SDS011;30597;49.628;10.850;2024-03-23T05:20:59;9.70;;;8.70;;
44862;SDS011;30597;49.628;10.850;2024-03-23T05:23:26;9.87;;;8.97;;
44862;SDS011;30597;49.628;10.850;2024-03-23T05:25:52;10.33;;;8.63;;
44862;SDS011;30597;49.628;10.850;2024-03-23T05:28:18;9.90;;;9.00;;
44862;SDS011;30597;49.628;10.850;2024-03-23T05:30:44;9.03;;;8.17;;
44862;SDS011;30597;49.628;10.850;2024-03-23T05:33:18;7.83;;;7.10;;
44862;SDS011;30597;49.628;10.850;2024-03-23T05:35:45;10.33;;;9.07;;
44862;SDS011;30597;49.628;10.850;2024-03-23T05:38:11;8.20;;;7.43;;
44862;SDS011;30597;49.628;10.850;2024-03-23T05:40:37;9.13;;;8.33;;
44862;SDS011;30597;49.628;10.850;2024-03-23T05:43:05;8.67;;;7.83;;
44862;SDS011;30597;49.628;10.850;2024-03-23T05:45:31;9.00;;;8.20;;
44862;SDS011;30597;49.628;10.850;2024-03-23T05:47:56;9.00;;;8.20;;
44862;SDS011;30597;49.628;10.850;2024-03-23T05:50:22;8.40;;;7.60;;
44862;SDS011;30597;49.628;10.850;2024-03-23T05:52:51;8.47;;;7.67;;
44862;SDS011;30597;49.628;10.850;2024-03-23T05:55:17;9.27;;;8.37;;
44862;SDS011;30597;49.628;10.850;2024-03-23T05:57:42;7.80;;;7.07;;
44862;SDS011;30597;49.628;10.850;2024-03-23T06:00:08;7.37;;;6.67;;
44862;SDS011;30597;49.628;10.850;2024-03-23T06:02:44;8.00;;;7.30;;
44862;SDS011;30597;49.628;10.850;2024-03-23T06:05:13;7.50;;;6.80;;
44862;SDS011;30597;49.628;10.850;2024-03-23T06:07:38;7.63;;;6.93;;
44862;SDS011;30597;49.628;10.850;2024-03-23T06:10:04;7.90;;;7.10;;
44862;SDS011;30597;49.628;10.850;2024-03-23T06:12:30;8.13;;;7.40;;
44862;SDS011;30597;49.628;10.850;2024-03-23T06:14:56;7.93;;;7.13;;
44862;SDS011;30597;49.628;10.850;2024-03-23T06:17:22;7.53;;;6.90;;
44862;SDS011;30597;49.628;10.850;2024-03-23T06:19:47;7.97;;;7.17;;
44862;SDS011;30597;49.628;10.850;2024-03-23T06:22:14;7.37;;;6.73;;
44862;SDS011;30597;49.628;10.850;2024-03-23T06:24:39;8.20;;;7.50;;
44862;SDS011;30597;49.628;10.850;2024-03-23T06:27:05;7.10;;;6.40;;
44862;SDS011;30597;49.628;10.850;2024-03-23T06:29:31;9.07;;;7.10;;
44862;SDS011;30597;49.628;10.850;2024-03-23T06:31:57;7.33;;;6.63;;
44862;SDS011;30597;49.628;10.850;2024-03-23T06:34:23;7.13;;;6.47;;
44862;SDS011;30597;49.628;10.850;2024-03-23T06:36:48;11.63;;;6.97;;
44862;SDS011;30597;49.628;10.850;2024-03-23T06:39:14;6.40;;;5.77;;
44862;SDS011;30597;49.628;10.850;2024-03-23T06:41:51;7.37;;;5.67;;
44862;SDS011;30597;49.628;10.850;2024-03-23T06:44:18;7.60;;;6.67;;
44862;SDS011;30597;49.628;10.850;2024-03-23T06:46:44;6.40;;;5.80;;
44862;SDS011;30597;49.628;10.850;2024-03-23T06:49:10;7.40;;;6.70;;
44862;SDS011;30597;49.628;10.850;2024-03-23T06:51:35;6.63;;;6.03;;
44862;SDS011;30597;49.628;10.850;2024-03-23T06:54:02;7.67;;;6.60;;
44862;SDS011;30597;49.628;10.850;2024-03-23T06:56:31;6.60;;;5.70;;
44862;SDS011;30597;49.628;10.850;2024-03-23T06:58:56;7.27;;;6.57;;
44862;SDS011;30597;49.628;10.850;2024-03-23T07:01:22;7.13;;;6.50;;
44862;SDS011;30597;49.628;10.850;2024-03-23T07:03:48;5.83;;;5.33;;
44862;SDS011;30597;49.628;10.850;2024-03-23T07:06:16;6.30;;;5.63;;
44862;SDS011;30597;49.628;10.850;2024-03-23T07:08:42;5.97;;;5.40;;
44862;SDS011;30597;49.628;10.850;2024-03-23T07:11:08;6.57;;;5.00;;
44862;SDS011;30597;49.628;10.850;2024-03-23T07:13:33;7.00;;;6.30;;
44862;SDS011;30597;49.628;10.850;2024-03-23T07:15:58;6.20;;;5.60;;
44862;SDS011;30597;49.628;10.850;2024-03-23T07:18:25;6.20;;;5.60;;
44862;SDS011;30597;49.628;10.850;2024-03-23T07:20:54;6.43;;;5.20;;
44862;SDS011;30597;49.628;10.850;2024-03-23T07:23:24;7.83;;;5.70;;
44862;SDS011;30597;49.628;10.850;2024-03-23T07:25:56;5.77;;;5.27;;
44862;SDS011;30597;49.628;10.850;2024-03-23T07:28:22;7.50;;;5.37;;
44862;SDS011;30597;49.628;10.850;2024-03-23T07:30:48;7.23;;;5.93;;
44862;SDS011;30597;49.628;10.850;2024-03-23T07:33:23;6.40;;;5.10;;
44862;SDS011;30597;49.628;10.850;2024-03-23T07:35:49;7.10;;;4.73;;
44862;SDS011;30597;49.628;10.850;2024-03-23T07:38:14;6.40;;;5.13;;
44862;SDS011;30597;49.628;10.850;2024-03-23T07:40:39;5.30;;;4.80;;
44862;SDS011;30597;49.628;10.850;2024-03-23T07:43:05;4.90;;;4.33;;
44862;SDS011;30597;49.628;10.850;2024-03-23T07:45:30;4.80;;;4.33;;
44862;SDS011;30597;49.628;10.850;2024-03-23T07:47:56;5.90;;;4.97;;
44862;SDS011;30597;49.628;10.850;2024-03-23T07:50:21;6.23;;;4.60;;
44862;SDS011;30597;49.628;10.850;2024-03-23T07:52:47;5.10;;;4.00;;
44862;SDS011;30597;49.628;10.850;2024-03-23T07:55:13;4.60;;;4.20;;
44862;SDS011;30597;49.628;10.850;2024-03-23T07:57:38;4.83;;;4.13;;
44862;SDS011;30597;49.628;10.850;2024-03-23T08:00:05;4.80;;;4.40;;
44862;SDS011;30597;49.628;10.850;2024-03-23T08:02:31;4.30;;;3.90;;
44862;SDS011;30597;49.628;10.850;2024-03-23T08:04:57;6.00;;;4.47;;
44862;SDS011;30597;49.628;10.850;2024-03-23T08:07:22;6.17;;;4.60;;
44862;SDS011;30597;49.628;10.850;2024-03-23T08:09:48;5.67;;;4.60;;
44862;SDS011;30597;49.628;10.850;2024-03-23T08:12:13;9.60;;;4.43;;
44862;SDS011;30597;49.628;10.850;2024-03-23T08:14:39;9.23;;;4.00;;
44862;SDS011;30597;49.628;10.850;2024-03-23T08:17:04;5.90;;;4.80;;
44862;SDS011;30597;49.628;10.850;2024-03-23T08:19:30;10.97;;;4.80;;
44862;SDS011;30597;49.628;10.850;2024-03-23T08:21:55;8.07;;;4.73;;
44862;SDS011;30597;49.628;10.850;2024-03-23T08:24:21;7.60;;;3.90;;
44862;SDS011;30597;49.628;10.850;2024-03-23T08:26:46;7.93;;;3.83;;
44862;SDS011;30597;49.628;10.850;2024-03-23T08:29:12;5.30;;;2.83;;
44862;SDS011;30597;49.628;10.850;2024-03-23T08:31:37;3.87;;;3.20;;
44862;SDS011;30597;49.628;10.850;2024-03-23T08:34:03;3.60;;;3.00;;
44862;SDS011;30597;49.628;10.850;2024-03-23T08:36:29;4.43;;;2.87;;
44862;SDS011;30597;49.628;10.850;2024-03-23T08:38:55;2.83;;;2.23;;
44862;SDS011;30597;49.628;10.850;2024-03-23T08:41:21;2.50;;;2.30;;
44862;SDS011;30597;49.628;10.850;2024-03-23T08:43:46;2.80;;;2.20;;
44862;SDS011;30597;49.628;10.850;2024-03-23T08:46:13;3.03;;;1.80;;
44862;SDS011;30597;49.628;10.850;2024-03-23T08:48:41;2.50;;;2.10;;
44862;SDS011;30597;49.628;10.850;2024-03-23T08:51:11;1.83;;;1.50;;
44862;SDS011;30597;49.628;10.850;2024-03-23T08:53:38;2.73;;;1.80;;
44862;SDS011;30597;49.628;10.850;2024-03-23T08:56:05;1.53;;;1.43;;
44862;SDS011;30597;49.628;10.850;2024-03-23T08:58:31;1.70;;;1.40;;
44862;SDS011;30597;49.628;10.850;2024-03-23T09:01:04;1.70;;;1.43;;
44862;SDS011;30597;49.628;10.850;2024-03-23T09:03:33;1.77;;;1.43;;
44862;SDS011;30597;49.628;10.850;2024-03-23T09:06:00;2.67;;;1.47;;
44862;SDS011;30597;49.628;10.850;2024-03-23T09:08:26;3.50;;;1.73;;
44862;SDS011;30597;49.628;10.850;2024-03-23T09:10:51;1.43;;;1.20;;
44862;SDS011;30597;49.628;10.850;2024-03-23T09:13:17;1.20;;;1.10;;
44862;SDS011;30597;49.628;10.850;2024-03-23T09:15:47;3.47;;;1.27;;
44862;SDS011;30597;49.628;10.850;2024-03-23T09:18:16;1.30;;;1.20;;
44862;SDS011;30597;49.628;10.850;2024-03-23T09:20:42;1.43;;;1.33;;
44862;SDS011;30597;49.628;10.850;2024-03-23T09:23:08;2.93;;;1.27;;
44862;SDS011;30597;49.628;10.850;2024-03-23T09:25:38;2.77;;;1.27;;
44862;SDS011;30597;49.628;10.850;2024-03-23T09:28:04;1.10;;;1.00;;
44862;SDS011;30597;49.628;10.850;2024-03-23T09:30:32;2.00;;;0.90;;
44862;SDS011;30597;49.628;10.850;2024-03-23T09:32:58;2.87;;;1.10;;
44862;SDS011;30597;49.628;10.850;2024-03-23T09:35:23;1.83;;;1.00;;
44862;SDS011;30597;49.628;10.850;2024-03-23T09:37:49;1.97;;;1.10;;
44862;SDS011;30597;49.628;10.850;2024-03-23T09:40:15;2.53;;;1.17;;
44862;SDS011;30597;49.628;10.850;2024-03-23T09:42:40;2.50;;;0.97;;
44862;SDS011;30597;49.628;10.850;2024-03-23T09:45:16;3.00;;;0.97;;
44862;SDS011;30597;49.628;10.850;2024-03-23T09:47:44;1.30;;;0.83;;
44862;SDS011;30597;49.628;10.850;2024-03-23T09:50:12;4.00;;;1.20;;
44862;SDS011;30597;49.628;10.850;2024-03-23T09:52:38;2.43;;;1.10;;
44862;SDS011;30597;49.628;10.850;2024-03-23T09:55:03;2.00;;;0.80;;
44862;SDS011;30597;49.628;10.850;2024-03-23T09:57:31;1.20;;;0.97;;
44862;SDS011;30597;49.628;10.850;2024-03-23T09:59:56;1.63;;;1.53;;
44862;SDS011;30597;49.628;10.850;2024-03-23T10:02:23;1.63;;;1.00;;
44862;SDS011;30597;49.628;10.850;2024-03-23T10:04:49;1.90;;;0.73;;
44862;SDS011;30597;49.628;10.850;2024-03-23T10:07:15;2.37;;;1.00;;
44862;SDS011;30597;49.628;10.850;2024-03-23T10:09:43;1.10;;;1.00;;
44862;SDS011;30597;49.628;10.850;2024-03-23T10:12:09;2.60;;;1.20;;
44862;SDS011;30597;49.628;10.850;2024-03-23T10:14:34;2.33;;;1.10;;
44862;SDS011;30597;49.628;10.850;2024-03-23T10:17:27;4.00;;;1.30;;
44862;SDS011;30597;49.628;10.850;2024-03-23T10:19:52;2.03;;;1.07;;
44862;SDS011;30597;49.628;10.850;2024-03-23T10:22:24;1.77;;;1.17;;
44862;SDS011;30597;49.628;10.850;2024-03-23T10:24:50;1.73;;;1.10;;
44862;SDS011;30597;49.628;10.850;2024-03-23T10:27:17;2.13;;;1.23;;
44862;SDS011;30597;49.628;10.850;2024-03-23T10:29:44;2.03;;;1.20;;
44862;SDS011;30597;49.628;10.850;2024-03-23T10:32:13;1.30;;;1.20;;
44862;SDS011;30597;49.628;10.850;2024-03-23T10:34:40;2.03;;;1.13;;
44862;SDS011;30597;49.628;10.850;2024-03-23T10:37:30;1.87;;;1.23;;
44862;SDS011;30597;49.628;10.850;2024-03-23T10:39:56;2.10;;;0.93;;
44862;SDS011;30597;49.628;10.850;2024-03-23T10:42:22;16.30;;;7.37;;
44862;SDS011;30597;49.628;10.850;2024-03-23T10:44:47;19.80;;;13.77;;
44862;SDS011;30597;49.628;10.850;2024-03-23T10:48:04;42.63;;;25.93;;
44862;SDS011;30597;49.628;10.850;2024-03-23T10:50:29;72.73;;;46.67;;
44862;SDS011;30597;49.628;10.850;2024-03-23T10:52:55;85.20;;;51.57;;
44862;SDS011;30597;49.628;10.850;2024-03-23T10:55:24;76.27;;;50.63;;
44862;SDS011;30597;49.628;10.850;2024-03-23T10:57:51;90.97;;;55.07;;
44862;SDS011;30597;49.628;10.850;2024-03-23T11:00:19;90.33;;;57.13;;
44862;SDS011;30597;49.628;10.850;2024-03-23T11:02:46;82.10;;;53.50;;
44862;SDS011;30597;49.628;10.850;2024-03-23T11:07:57;67.93;;;44.17;;
44862;SDS011;30597;49.628;10.850;2024-03-23T11:10:29;66.77;;;43.20;;
44862;SDS011;30597;49.628;10.850;2024-03-23T11:12:56;68.43;;;43.90;;
44862;SDS011;30597;49.628;10.850;2024-03-23T11:15:22;71.50;;;45.10;;
44862;SDS011;30597;49.628;10.850;2024-03-23T11:18:12;66.83;;;43.07;;
44862;SDS011;30597;49.628;10.850;2024-03-23T11:20:45;65.90;;;42.07;;
44862;SDS011;30597;49.628;10.850;2024-03-23T11:23:26;59.77;;;41.07;;
44862;SDS011;30597;49.628;10.850;2024-03-23T11:28:43;63.23;;;41.17;;
44862;SDS011;30597;49.628;10.850;2024-03-23T11:31:09;54.87;;;37.87;;
44862;SDS011;30597;49.628;10.850;2024-03-23T11:33:35;60.60;;;40.00;;
44862;SDS011;30597;49.628;10.850;2024-03-23T11:36:01;58.47;;;39.60;;
44862;SDS011;30597;49.628;10.850;2024-03-23T11:38:27;60.40;;;39.67;;
44862;SDS011;30597;49.628;10.850;2024-03-23T11:40:52;59.90;;;37.73;;
44862;SDS011;30597;49.628;10.850;2024-03-23T11:43:19;51.20;;;36.43;;
44862;SDS011;30597;49.628;10.850;2024-03-23T11:45:49;53.27;;;36.23;;
44862;SDS011;30597;49.628;10.850;2024-03-23T11:48:20;52.77;;;36.23;;
44862;SDS011;30597;49.628;10.850;2024-03-23T11:50:48;48.57;;;34.93;;
44862;SDS011;30597;49.628;10.850;2024-03-23T11:53:19;51.40;;;35.83;;
44862;SDS011;30597;49.628;10.850;2024-03-23T11:55:49;46.03;;;34.20;;
44862;SDS011;30597;49.628;10.850;2024-03-23T11:58:15;49.03;;;35.00;;
44862;SDS011;30597;49.628;10.850;2024-03-23T12:00:42;50.30;;;34.00;;
44862;SDS011;30597;49.628;10.850;2024-03-23T12:03:16;51.53;;;34.80;;
44862;SDS011;30597;49.628;10.850;2024-03-23T12:05:47;44.30;;;31.07;;
44862;SDS011;30597;49.628;10.850;2024-03-23T12:08:24;44.53;;;32.53;;
44862;SDS011;30597;49.628;10.850;2024-03-23T12:10:52;45.57;;;30.47;;
44862;SDS011;30597;49.628;10.850;2024-03-23T12:13:29;35.50;;;26.90;;
44862;SDS011;30597;49.628;10.850;2024-03-23T12:15:54;39.40;;;25.37;;
44862;SDS011;30597;49.628;10.850;2024-03-23T12:18:33;38.97;;;25.20;;
44862;SDS011;30597;49.628;10.850;2024-03-23T12:20:59;35.07;;;23.97;;
44862;SDS011;30597;49.628;10.850;2024-03-23T12:23:24;30.80;;;20.10;;
44862;SDS011;30597;49.628;10.850;2024-03-23T12:25:50;31.90;;;20.00;;
44862;SDS011;30597;49.628;10.850;2024-03-23T12:28:15;32.37;;;22.87;;
44862;SDS011;30597;49.628;10.850;2024-03-23T12:30:41;28.27;;;18.93;;
44862;SDS011;30597;49.628;10.850;2024-03-23T12:33:07;26.67;;;18.20;;
44862;SDS011;30597;49.628;10.850;2024-03-23T12:35:32;24.60;;;18.10;;
44862;SDS011;30597;49.628;10.850;2024-03-23T12:37:58;22.97;;;17.70;;
44862;SDS011;30597;49.628;10.850;2024-03-23T12:40:24;25.67;;;18.27;;
44862;SDS011;30597;49.628;10.850;2024-03-23T12:42:50;23.97;;;16.97;;
44862;SDS011;30597;49.628;10.850;2024-03-23T12:45:15;20.80;;;17.10;;
44862;SDS011;30597;49.628;10.850;2024-03-23T12:47:41;22.27;;;17.10;;
44862;SDS011;30597;49.628;10.850;2024-03-23T12:50:07;20.70;;;15.97;;
44862;SDS011;30597;49.628;10.850;2024-03-23T12:52:33;24.50;;;14.90;;
44862;SDS011;30597;49.628;10.850;2024-03-23T12:54:58;22.47;;;16.27;;
44862;SDS011;30597;49.628;10.850;2024-03-23T12:57:24;22.80;;;15.67;;
44862;SDS011;30597;49.628;10.850;2024-03-23T12:59:54;22.67;;;14.60;;
44862;SDS011;30597;49.628;10.850;2024-03-23T13:02:20;23.97;;;15.10;;
44862;SDS011;30597;49.628;10.850;2024-03-23T13:04:52;21.67;;;15.67;;
44862;SDS011;30597;49.628;10.850;2024-03-23T13:07:18;22.07;;;15.77;;
44862;SDS011;30597;49.628;10.850;2024-03-23T13:09:44;20.20;;;14.17;;
44862;SDS011;30597;49.628;10.850;2024-03-23T13:12:10;17.90;;;12.97;;
44862;SDS011;30597;49.628;10.850;2024-03-23T13:14:39;19.30;;;13.63;;
44862;SDS011;30597;49.628;10.850;2024-03-23T13:17:05;21.70;;;13.30;;
44862;SDS011;30597;49.628;10.850;2024-03-23T13:19:31;21.50;;;12.93;;
44862;SDS011;30597;49.628;10.850;2024-03-23T13:21:58;21.50;;;13.40;;
44862;SDS011;30597;49.628;10.850;2024-03-23T13:24:25;28.20;;;14.90;;
44862;SDS011;30597;49.628;10.850;2024-03-23T13:26:51;23.00;;;13.23;;
44862;SDS011;30597;49.628;10.850;2024-03-23T13:29:18;20.37;;;14.80;;
44862;SDS011;30597;49.628;10.850;2024-03-23T13:31:44;16.77;;;12.97;;
44862;SDS011;30597;49.628;10.850;2024-03-23T13:34:13;22.67;;;12.70;;
44862;SDS011;30597;49.628;10.850;2024-03-23T13:36:40;19.47;;;13.10;;
44862;SDS011;30597;49.628;10.850;2024-03-23T13:39:06;19.53;;;14.50;;
44862;SDS011;30597;49.628;10.850;2024-03-23T13:41:39;17.80;;;11.97;;
44862;SDS011;30597;49.628;10.850;2024-03-23T13:44:06;18.07;;;12.30;;
44862;SDS011;30597;49.628;10.850;2024-03-23T13:46:32;21.03;;;13.40;;
44862;SDS011;30597;49.628;10.850;2024-03-23T13:48:58;17.57;;;12.30;;
44862;SDS011;30597;49.628;10.850;2024-03-23T13:51:24;16.53;;;12.20;;
44862;SDS011;30597;49.628;10.850;2024-03-23T13:53:52;14.80;;;10.27;;
44862;SDS011;30597;49.628;10.850;2024-03-23T13:56:18;15.20;;;11.50;;
44862;SDS011;30597;49.628;10.850;2024-03-23T13:58:44;15.17;;;11.17;;
44862;SDS011;30597;49.628;10.850;2024-03-23T14:01:12;16.13;;;11.30;;
44862;SDS011;30597;49.628;10.850;2024-03-23T14:03:38;17.90;;;11.17;;
44862;SDS011;30597;49.628;10.850;2024-03-23T14:06:03;15.43;;;10.37;;
44862;SDS011;30597;49.628;10.850;2024-03-23T14:08:29;15.77;;;10.50;;
44862;SDS011;30597;49.628;10.850;2024-03-23T14:10:58;13.77;;;10.13;;
44862;SDS011;30597;49.628;10.850;2024-03-23T14:13:23;15.73;;;10.10;;
44862;SDS011;30597;49.628;10.850;2024-03-23T14:15:52;15.63;;;11.07;;
44862;SDS011;30597;49.628;10.850;2024-03-23T14:18:18;13.97;;;9.87;;
44862;SDS011;30597;49.628;10.850;2024-03-23T14:20:44;15.23;;;10.33;;
44862;SDS011;30597;49.628;10.850;2024-03-23T14:23:11;15.70;;;10.50;;
44862;SDS011;30597;49.628;10.850;2024-03-23T14:25:37;14.13;;;9.70;;
44862;SDS011;30597;49.628;10.850;2024-03-23T14:28:02;13.20;;;9.20;;
44862;SDS011;30597;49.628;10.850;2024-03-23T14:30:28;12.70;;;9.83;;
44862;SDS011;30597;49.628;10.850;2024-03-23T14:32:53;11.27;;;9.17;;
44862;SDS011;30597;49.628;10.850;2024-03-23T14:35:19;12.07;;;9.27;;
44862;SDS011;30597;49.628;10.850;2024-03-23T14:37:44;14.17;;;9.00;;
44862;SDS011;30597;49.628;10.850;2024-03-23T14:40:12;11.20;;;8.87;;
44862;SDS011;30597;49.628;10.850;2024-03-23T14:42:38;11.20;;;9.10;;
44862;SDS011;30597;49.628;10.850;2024-03-23T14:45:04;12.03;;;9.70;;
44862;SDS011;30597;49.628;10.850;2024-03-23T14:47:30;12.63;;;9.17;;
44862;SDS011;30597;49.628;10.850;2024-03-23T14:49:56;10.10;;;8.13;;
44862;SDS011;30597;49.628;10.850;2024-03-23T14:52:23;9.40;;;7.80;;
44862;SDS011;30597;49.628;10.850;2024-03-23T14:54:49;11.60;;;8.13;;
44862;SDS011;30597;49.628;10.850;2024-03-23T14:57:15;13.40;;;8.77;;
44862;SDS011;30597;49.628;10.850;2024-03-23T14:59:40;11.93;;;7.60;;
44862;SDS011;30597;49.628;10.850;2024-03-23T15:02:06;8.77;;;7.30;;
44862;SDS011;30597;49.628;10.850;2024-03-23T15:04:32;11.20;;;7.80;;
44862;SDS011;30597;49.628;10.850;2024-03-23T15:06:58;10.77;;;7.50;;
44862;SDS011;30597;49.628;10.850;2024-03-23T15:09:24;12.40;;;8.67;;
44862;SDS011;30597;49.628;10.850;2024-03-23T15:11:50;9.50;;;7.33;;
44862;SDS011;30597;49.628;10.850;2024-03-23T15:14:15;12.80;;;8.67;;
44862;SDS011;30597;49.628;10.850;2024-03-23T15:16:41;11.27;;;7.20;;
44862;SDS011;30597;49.628;10.850;2024-03-23T15:19:09;9.63;;;7.27;;
44862;SDS011;30597;49.628;10.850;2024-03-23T15:21:35;10.97;;;8.40;;
44862;SDS011;30597;49.628;10.850;2024-03-23T15:24:00;10.30;;;7.33;;